sensor_id;sensor_type;location;lat;lon;timestamp;P1;durP1;ratioP1;P2;durP2;ratioP2
11797;SDS011;5956;51.428;6.682;2023-12-04T00:02:20;21.23;;;14.63;;
11797;SDS011;5956;51.428;6.682;2023-12-04T00:04:48;17.67;;;14.00;;
11797;SDS011;5956;51.428;6.682;2023-12-04T00:07:14;17.47;;;14.07;;
11797;SDS011;5956;51.428;6.682;2023-12-04T00:09:41;19.67;;;14.17;;
11797;SDS011;5956;51.428;6.682;2023-12-04T00:12:06;17.37;;;13.47;;
11797;SDS011;5956;51.428;6.682;2023-12-04T00:14:33;18.27;;;13.90;;
11797;SDS011;5956;51.428;6.682;2023-12-04T00:16:59;18.20;;;13.87;;
11797;SDS011;5956;51.428;6.682;2023-12-04T00:19:26;18.23;;;13.40;;
11797;SDS011;5956;51.428;6.682;2023-12-04T00:21:54;18.67;;;13.80;;
11797;SDS011;5956;51.428;6.682;2023-12-04T00:24:20;19.27;;;14.97;;
11797;SDS011;5956;51.428;6.682;2023-12-04T00:26:47;19.27;;;14.73;;
11797;SDS011;5956;51.428;6.682;2023-12-04T00:29:13;19.13;;;13.67;;
11797;SDS011;5956;51.428;6.682;2023-12-04T00:31:40;19.47;;;14.73;;
11797;SDS011;5956;51.428;6.682;2023-12-04T00:34:06;16.30;;;13.87;;
11797;SDS011;5956;51.428;6.682;2023-12-04T00:36:33;17.23;;;12.93;;
11797;SDS011;5956;51.428;6.682;2023-12-04T00:39:00;15.40;;;12.97;;
11797;SDS011;5956;51.428;6.682;2023-12-04T00:41:28;17.60;;;13.33;;
11797;SDS011;5956;51.428;6.682;2023-12-04T00:43:55;17.73;;;13.03;;
11797;SDS011;5956;51.428;6.682;2023-12-04T00:46:21;18.80;;;13.97;;
11797;SDS011;5956;51.428;6.682;2023-12-04T00:48:48;17.03;;;13.43;;
11797;SDS011;5956;51.428;6.682;2023-12-04T00:51:14;15.63;;;12.73;;
11797;SDS011;5956;51.428;6.682;2023-12-04T00:53:41;16.07;;;12.67;;
11797;SDS011;5956;51.428;6.682;2023-12-04T00:56:09;16.17;;;13.33;;
11797;SDS011;5956;51.428;6.682;2023-12-04T00:58:36;14.73;;;12.60;;
11797;SDS011;5956;51.428;6.682;2023-12-04T01:01:02;15.13;;;11.90;;
11797;SDS011;5956;51.428;6.682;2023-12-04T01:03:29;18.07;;;12.70;;
11797;SDS011;5956;51.428;6.682;2023-12-04T01:05:58;15.97;;;11.97;;
11797;SDS011;5956;51.428;6.682;2023-12-04T01:08:24;13.80;;;11.57;;
11797;SDS011;5956;51.428;6.682;2023-12-04T01:10:51;15.73;;;12.00;;
11797;SDS011;5956;51.428;6.682;2023-12-04T01:13:18;13.33;;;10.17;;
11797;SDS011;5956;51.428;6.682;2023-12-04T01:15:45;12.97;;;11.40;;
11797;SDS011;5956;51.428;6.682;2023-12-04T01:18:13;16.60;;;11.77;;
11797;SDS011;5956;51.428;6.682;2023-12-04T01:20:40;13.87;;;12.07;;
11797;SDS011;5956;51.428;6.682;2023-12-04T01:23:06;13.00;;;11.00;;
11797;SDS011;5956;51.428;6.682;2023-12-04T01:25:33;13.63;;;11.13;;
11797;SDS011;5956;51.428;6.682;2023-12-04T01:27:59;16.07;;;11.87;;
11797;SDS011;5956;51.428;6.682;2023-12-04T01:30:27;15.53;;;10.63;;
11797;SDS011;5956;51.428;6.682;2023-12-04T01:32:54;14.00;;;11.20;;
11797;SDS011;5956;51.428;6.682;2023-12-04T01:35:20;11.83;;;10.07;;
11797;SDS011;5956;51.428;6.682;2023-12-04T01:37:47;15.00;;;11.10;;
11797;SDS011;5956;51.428;6.682;2023-12-04T01:40:13;13.90;;;10.63;;
11797;SDS011;5956;51.428;6.682;2023-12-04T01:42:40;13.17;;;11.03;;
11797;SDS011;5956;51.428;6.682;2023-12-04T01:45:08;14.40;;;11.07;;
11797;SDS011;5956;51.428;6.682;2023-12-04T01:47:36;12.90;;;10.70;;
11797;SDS011;5956;51.428;6.682;2023-12-04T01:50:03;12.87;;;9.97;;
11797;SDS011;5956;51.428;6.682;2023-12-04T01:52:30;12.00;;;9.87;;
11797;SDS011;5956;51.428;6.682;2023-12-04T01:54:56;12.43;;;10.03;;
11797;SDS011;5956;51.428;6.682;2023-12-04T01:57:23;12.97;;;10.20;;
11797;SDS011;5956;51.428;6.682;2023-12-04T01:59:49;13.07;;;9.47;;
11797;SDS011;5956;51.428;6.682;2023-12-04T02:02:16;13.10;;;10.13;;
11797;SDS011;5956;51.428;6.682;2023-12-04T02:04:44;11.00;;;9.33;;
11797;SDS011;5956;51.428;6.682;2023-12-04T02:07:10;11.43;;;9.07;;
11797;SDS011;5956;51.428;6.682;2023-12-04T02:09:37;12.73;;;10.53;;
11797;SDS011;5956;51.428;6.682;2023-12-04T02:12:04;12.53;;;9.63;;
11797;SDS011;5956;51.428;6.682;2023-12-04T02:14:30;10.80;;;9.30;;
11797;SDS011;5956;51.428;6.682;2023-12-04T02:16:57;11.90;;;9.63;;
11797;SDS011;5956;51.428;6.682;2023-12-04T02:19:24;11.67;;;10.23;;
11797;SDS011;5956;51.428;6.682;2023-12-04T02:21:52;10.37;;;9.07;;
11797;SDS011;5956;51.428;6.682;2023-12-04T02:24:20;13.40;;;10.13;;
11797;SDS011;5956;51.428;6.682;2023-12-04T02:26:47;10.53;;;9.27;;
11797;SDS011;5956;51.428;6.682;2023-12-04T02:29:14;12.27;;;9.17;;
11797;SDS011;5956;51.428;6.682;2023-12-04T02:31:44;11.80;;;9.57;;
11797;SDS011;5956;51.428;6.682;2023-12-04T02:34:11;13.33;;;10.10;;
11797;SDS011;5956;51.428;6.682;2023-12-04T02:36:39;11.37;;;9.57;;
11797;SDS011;5956;51.428;6.682;2023-12-04T02:39:07;11.23;;;9.17;;
11797;SDS011;5956;51.428;6.682;2023-12-04T02:41:35;10.77;;;8.97;;
11797;SDS011;5956;51.428;6.682;2023-12-04T02:44:01;14.00;;;9.27;;
11797;SDS011;5956;51.428;6.682;2023-12-04T02:46:28;12.03;;;9.63;;
11797;SDS011;5956;51.428;6.682;2023-12-04T02:48:54;12.27;;;9.93;;
11797;SDS011;5956;51.428;6.682;2023-12-04T02:51:21;11.13;;;9.03;;
11797;SDS011;5956;51.428;6.682;2023-12-04T02:53:47;10.27;;;9.10;;
11797;SDS011;5956;51.428;6.682;2023-12-04T02:56:14;11.10;;;9.90;;
11797;SDS011;5956;51.428;6.682;2023-12-04T02:58:42;9.30;;;8.17;;
11797;SDS011;5956;51.428;6.682;2023-12-04T03:01:08;11.67;;;9.03;;
11797;SDS011;5956;51.428;6.682;2023-12-04T03:03:35;11.27;;;9.17;;
11797;SDS011;5956;51.428;6.682;2023-12-04T03:06:01;11.17;;;9.03;;
11797;SDS011;5956;51.428;6.682;2023-12-04T03:08:28;9.23;;;8.30;;
11797;SDS011;5956;51.428;6.682;2023-12-04T03:10:54;10.73;;;8.87;;
11797;SDS011;5956;51.428;6.682;2023-12-04T03:13:20;9.63;;;8.53;;
11797;SDS011;5956;51.428;6.682;2023-12-04T03:15:48;12.20;;;9.40;;
11797;SDS011;5956;51.428;6.682;2023-12-04T03:18:15;9.07;;;8.07;;
11797;SDS011;5956;51.428;6.682;2023-12-04T03:20:41;10.83;;;9.37;;
11797;SDS011;5956;51.428;6.682;2023-12-04T03:23:08;10.97;;;8.93;;
11797;SDS011;5956;51.428;6.682;2023-12-04T03:25:34;9.83;;;8.70;;
11797;SDS011;5956;51.428;6.682;2023-12-04T03:28:01;10.70;;;8.50;;
11797;SDS011;5956;51.428;6.682;2023-12-04T03:30:27;8.53;;;7.63;;
11797;SDS011;5956;51.428;6.682;2023-12-04T03:32:55;11.63;;;9.07;;
11797;SDS011;5956;51.428;6.682;2023-12-04T03:35:22;11.03;;;9.17;;
11797;SDS011;5956;51.428;6.682;2023-12-04T03:37:48;9.63;;;8.33;;
11797;SDS011;5956;51.428;6.682;2023-12-04T03:40:15;11.17;;;8.87;;
11797;SDS011;5956;51.428;6.682;2023-12-04T03:42:42;9.77;;;8.63;;
11797;SDS011;5956;51.428;6.682;2023-12-04T03:45:09;8.10;;;7.30;;
11797;SDS011;5956;51.428;6.682;2023-12-04T03:47:35;9.37;;;7.50;;
11797;SDS011;5956;51.428;6.682;2023-12-04T03:50:04;8.90;;;7.80;;
11797;SDS011;5956;51.428;6.682;2023-12-04T03:52:30;9.33;;;7.93;;
11797;SDS011;5956;51.428;6.682;2023-12-04T03:54:57;9.47;;;7.53;;
11797;SDS011;5956;51.428;6.682;2023-12-04T03:57:23;8.60;;;7.63;;
11797;SDS011;5956;51.428;6.682;2023-12-04T03:59:50;11.03;;;7.93;;
11797;SDS011;5956;51.428;6.682;2023-12-04T04:02:16;9.40;;;7.17;;
11797;SDS011;5956;51.428;6.682;2023-12-04T04:04:43;8.97;;;7.83;;
11797;SDS011;5956;51.428;6.682;2023-12-04T04:07:11;10.10;;;7.57;;
11797;SDS011;5956;51.428;6.682;2023-12-04T04:09:37;7.93;;;7.07;;
11797;SDS011;5956;51.428;6.682;2023-12-04T04:12:04;9.50;;;8.33;;
11797;SDS011;5956;51.428;6.682;2023-12-04T04:14:33;8.77;;;7.60;;
11797;SDS011;5956;51.428;6.682;2023-12-04T04:16:59;8.67;;;7.77;;
11797;SDS011;5956;51.428;6.682;2023-12-04T04:19:26;8.63;;;7.37;;
11797;SDS011;5956;51.428;6.682;2023-12-04T04:21:52;8.53;;;7.60;;
11797;SDS011;5956;51.428;6.682;2023-12-04T04:24:20;8.47;;;7.40;;
11797;SDS011;5956;51.428;6.682;2023-12-04T04:26:46;7.57;;;6.77;;
11797;SDS011;5956;51.428;6.682;2023-12-04T04:29:13;8.27;;;7.47;;
11797;SDS011;5956;51.428;6.682;2023-12-04T04:31:39;9.00;;;7.30;;
11797;SDS011;5956;51.428;6.682;2023-12-04T04:34:06;8.57;;;7.07;;
11797;SDS011;5956;51.428;6.682;2023-12-04T04:36:32;9.53;;;6.97;;
11797;SDS011;5956;51.428;6.682;2023-12-04T04:39:00;9.87;;;7.80;;
11797;SDS011;5956;51.428;6.682;2023-12-04T04:41:28;8.43;;;7.00;;
11797;SDS011;5956;51.428;6.682;2023-12-04T04:43:55;7.70;;;6.50;;
11797;SDS011;5956;51.428;6.682;2023-12-04T04:46:21;7.77;;;6.97;;
11797;SDS011;5956;51.428;6.682;2023-12-04T04:48:47;7.57;;;6.77;;
11797;SDS011;5956;51.428;6.682;2023-12-04T04:51:14;8.57;;;7.53;;
11797;SDS011;5956;51.428;6.682;2023-12-04T04:53:40;9.40;;;7.47;;
11797;SDS011;5956;51.428;6.682;2023-12-04T04:56:08;7.63;;;6.50;;
11797;SDS011;5956;51.428;6.682;2023-12-04T04:58:36;8.07;;;7.27;;
11797;SDS011;5956;51.428;6.682;2023-12-04T05:01:02;8.80;;;7.13;;
11797;SDS011;5956;51.428;6.682;2023-12-04T05:03:29;7.80;;;6.63;;
11797;SDS011;5956;51.428;6.682;2023-12-04T05:05:55;8.83;;;7.27;;
11797;SDS011;5956;51.428;6.682;2023-12-04T05:08:22;7.87;;;7.07;;
11797;SDS011;5956;51.428;6.682;2023-12-04T05:10:48;9.27;;;7.23;;
11797;SDS011;5956;51.428;6.682;2023-12-04T05:13:15;8.40;;;7.30;;
11797;SDS011;5956;51.428;6.682;2023-12-04T05:15:43;9.37;;;7.30;;
11797;SDS011;5956;51.428;6.682;2023-12-04T05:18:09;9.53;;;7.67;;
11797;SDS011;5956;51.428;6.682;2023-12-04T05:20:36;13.63;;;8.67;;
11797;SDS011;5956;51.428;6.682;2023-12-04T05:23:02;12.70;;;9.17;;
11797;SDS011;5956;51.428;6.682;2023-12-04T05:25:29;9.60;;;7.67;;
11797;SDS011;5956;51.428;6.682;2023-12-04T05:27:55;10.50;;;8.20;;
11797;SDS011;5956;51.428;6.682;2023-12-04T05:30:22;11.33;;;7.93;;
11797;SDS011;5956;51.428;6.682;2023-12-04T05:32:50;8.60;;;7.03;;
11797;SDS011;5956;51.428;6.682;2023-12-04T05:35:16;10.27;;;7.73;;
11797;SDS011;5956;51.428;6.682;2023-12-04T05:37:43;12.83;;;7.10;;
11797;SDS011;5956;51.428;6.682;2023-12-04T05:40:10;10.73;;;7.70;;
11797;SDS011;5956;51.428;6.682;2023-12-04T05:42:37;15.40;;;8.27;;
11797;SDS011;5956;51.428;6.682;2023-12-04T05:45:04;9.17;;;8.00;;
11797;SDS011;5956;51.428;6.682;2023-12-04T05:47:30;11.17;;;7.93;;
11797;SDS011;5956;51.428;6.682;2023-12-04T05:49:58;9.23;;;8.20;;
11797;SDS011;5956;51.428;6.682;2023-12-04T05:52:25;10.90;;;8.77;;
11797;SDS011;5956;51.428;6.682;2023-12-04T05:54:51;10.47;;;8.53;;
11797;SDS011;5956;51.428;6.682;2023-12-04T05:57:18;9.47;;;8.43;;
11797;SDS011;5956;51.428;6.682;2023-12-04T05:59:44;11.70;;;9.13;;
11797;SDS011;5956;51.428;6.682;2023-12-04T06:02:11;9.73;;;8.70;;
11797;SDS011;5956;51.428;6.682;2023-12-04T06:04:37;10.10;;;8.40;;
11797;SDS011;5956;51.428;6.682;2023-12-04T06:07:05;10.67;;;8.20;;
11797;SDS011;5956;51.428;6.682;2023-12-04T06:09:32;11.73;;;8.63;;
11797;SDS011;5956;51.428;6.682;2023-12-04T06:12:01;7.05;;;6.13;;
11797;SDS011;5956;51.428;6.682;2023-12-04T06:14:33;10.93;;;8.93;;
11797;SDS011;5956;51.428;6.682;2023-12-04T06:16:59;9.40;;;8.13;;
11797;SDS011;5956;51.428;6.682;2023-12-04T06:19:27;9.10;;;8.20;;
11797;SDS011;5956;51.428;6.682;2023-12-04T06:21:54;10.33;;;8.60;;
11797;SDS011;5956;51.428;6.682;2023-12-04T06:24:22;10.80;;;8.03;;
11797;SDS011;5956;51.428;6.682;2023-12-04T06:26:49;9.90;;;8.50;;
11797;SDS011;5956;51.428;6.682;2023-12-04T06:29:16;8.57;;;7.67;;
11797;SDS011;5956;51.428;6.682;2023-12-04T06:31:43;10.93;;;8.53;;
11797;SDS011;5956;51.428;6.682;2023-12-04T06:34:09;10.77;;;8.77;;
11797;SDS011;5956;51.428;6.682;2023-12-04T06:36:37;10.37;;;8.67;;
11797;SDS011;5956;51.428;6.682;2023-12-04T06:39:05;11.50;;;9.03;;
11797;SDS011;5956;51.428;6.682;2023-12-04T06:41:35;10.63;;;8.73;;
11797;SDS011;5956;51.428;6.682;2023-12-04T06:44:01;9.60;;;8.70;;
11797;SDS011;5956;51.428;6.682;2023-12-04T06:46:28;10.40;;;8.87;;
11797;SDS011;5956;51.428;6.682;2023-12-04T06:48:57;11.13;;;8.63;;
11797;SDS011;5956;51.428;6.682;2023-12-04T06:51:24;9.60;;;8.13;;
11797;SDS011;5956;51.428;6.682;2023-12-04T06:53:50;9.50;;;8.37;;
11797;SDS011;5956;51.428;6.682;2023-12-04T06:56:17;10.10;;;8.73;;
11797;SDS011;5956;51.428;6.682;2023-12-04T06:58:45;11.43;;;8.33;;
11797;SDS011;5956;51.428;6.682;2023-12-04T07:01:12;11.30;;;9.57;;
11797;SDS011;5956;51.428;6.682;2023-12-04T07:03:38;12.30;;;8.47;;
11797;SDS011;5956;51.428;6.682;2023-12-04T07:06:05;10.13;;;8.63;;
11797;SDS011;5956;51.428;6.682;2023-12-04T07:08:32;11.00;;;9.23;;
11797;SDS011;5956;51.428;6.682;2023-12-04T07:10:58;9.73;;;8.47;;
11797;SDS011;5956;51.428;6.682;2023-12-04T07:13:26;10.90;;;9.10;;
11797;SDS011;5956;51.428;6.682;2023-12-04T07:15:53;11.00;;;8.97;;
11797;SDS011;5956;51.428;6.682;2023-12-04T07:18:20;10.50;;;9.33;;
11797;SDS011;5956;51.428;6.682;2023-12-04T07:20:46;10.03;;;8.90;;
11797;SDS011;5956;51.428;6.682;2023-12-04T07:23:13;10.57;;;9.13;;
11797;SDS011;5956;51.428;6.682;2023-12-04T07:25:40;11.17;;;8.87;;
11797;SDS011;5956;51.428;6.682;2023-12-04T07:28:06;10.40;;;9.17;;
11797;SDS011;5956;51.428;6.682;2023-12-04T07:30:33;10.73;;;8.87;;
11797;SDS011;5956;51.428;6.682;2023-12-04T07:33:01;9.87;;;8.57;;
11797;SDS011;5956;51.428;6.682;2023-12-04T07:35:27;10.70;;;9.07;;
11797;SDS011;5956;51.428;6.682;2023-12-04T07:37:54;10.13;;;9.03;;
11797;SDS011;5956;51.428;6.682;2023-12-04T07:40:20;11.27;;;9.07;;
11797;SDS011;5956;51.428;6.682;2023-12-04T07:42:48;11.30;;;9.20;;
11797;SDS011;5956;51.428;6.682;2023-12-04T07:45:14;16.70;;;12.63;;
11797;SDS011;5956;51.428;6.682;2023-12-04T07:47:41;15.83;;;10.93;;
11797;SDS011;5956;51.428;6.682;2023-12-04T07:50:09;10.13;;;9.10;;
11797;SDS011;5956;51.428;6.682;2023-12-04T07:52:36;9.33;;;8.40;;
11797;SDS011;5956;51.428;6.682;2023-12-04T07:55:03;11.50;;;9.80;;
11797;SDS011;5956;51.428;6.682;2023-12-04T07:57:29;10.53;;;9.27;;
11797;SDS011;5956;51.428;6.682;2023-12-04T07:59:56;18.20;;;12.80;;
11797;SDS011;5956;51.428;6.682;2023-12-04T08:02:22;10.83;;;8.87;;
11797;SDS011;5956;51.428;6.682;2023-12-04T08:04:49;10.47;;;9.30;;
11797;SDS011;5956;51.428;6.682;2023-12-04T08:07:17;13.07;;;9.43;;
11797;SDS011;5956;51.428;6.682;2023-12-04T08:09:43;11.43;;;9.40;;
11797;SDS011;5956;51.428;6.682;2023-12-04T08:12:10;14.37;;;10.87;;
11797;SDS011;5956;51.428;6.682;2023-12-04T08:14:36;12.70;;;10.20;;
11797;SDS011;5956;51.428;6.682;2023-12-04T08:17:03;11.93;;;8.73;;
11797;SDS011;5956;51.428;6.682;2023-12-04T08:19:30;10.73;;;8.53;;
11797;SDS011;5956;51.428;6.682;2023-12-04T08:21:56;10.73;;;8.37;;
11797;SDS011;5956;51.428;6.682;2023-12-04T08:24:25;11.27;;;8.70;;
11797;SDS011;5956;51.428;6.682;2023-12-04T08:26:52;10.40;;;8.33;;
11797;SDS011;5956;51.428;6.682;2023-12-04T08:29:18;10.20;;;8.30;;
11797;SDS011;5956;51.428;6.682;2023-12-04T08:31:44;9.80;;;8.80;;
11797;SDS011;5956;51.428;6.682;2023-12-04T08:34:11;9.40;;;8.40;;
11797;SDS011;5956;51.428;6.682;2023-12-04T08:36:37;10.43;;;8.23;;
11797;SDS011;5956;51.428;6.682;2023-12-04T08:39:04;10.93;;;7.83;;
11797;SDS011;5956;51.428;6.682;2023-12-04T08:41:32;9.00;;;7.67;;
11797;SDS011;5956;51.428;6.682;2023-12-04T08:43:58;8.80;;;7.83;;
11797;SDS011;5956;51.428;6.682;2023-12-04T08:46:25;8.47;;;7.10;;
11797;SDS011;5956;51.428;6.682;2023-12-04T08:48:52;8.57;;;7.43;;
11797;SDS011;5956;51.428;6.682;2023-12-04T08:51:18;8.90;;;7.37;;
11797;SDS011;5956;51.428;6.682;2023-12-04T08:53:45;8.90;;;7.97;;
11797;SDS011;5956;51.428;6.682;2023-12-04T08:56:12;8.43;;;7.33;;
11797;SDS011;5956;51.428;6.682;2023-12-04T08:58:39;9.70;;;7.57;;
11797;SDS011;5956;51.428;6.682;2023-12-04T09:01:06;7.37;;;6.53;;
11797;SDS011;5956;51.428;6.682;2023-12-04T09:03:33;7.07;;;6.27;;
11797;SDS011;5956;51.428;6.682;2023-12-04T09:05:59;11.83;;;6.90;;
11797;SDS011;5956;51.428;6.682;2023-12-04T09:08:26;16.17;;;11.77;;
11797;SDS011;5956;51.428;6.682;2023-12-04T09:10:52;7.40;;;6.50;;
11797;SDS011;5956;51.428;6.682;2023-12-04T09:13:19;6.87;;;6.03;;
11797;SDS011;5956;51.428;6.682;2023-12-04T09:15:47;8.87;;;6.63;;
11797;SDS011;5956;51.428;6.682;2023-12-04T09:18:13;7.10;;;6.27;;
11797;SDS011;5956;51.428;6.682;2023-12-04T09:20:40;7.53;;;6.50;;
11797;SDS011;5956;51.428;6.682;2023-12-04T09:23:07;6.07;;;5.50;;
11797;SDS011;5956;51.428;6.682;2023-12-04T09:25:34;7.60;;;6.90;;
11797;SDS011;5956;51.428;6.682;2023-12-04T09:28:01;6.63;;;5.93;;
11797;SDS011;5956;51.428;6.682;2023-12-04T09:30:28;7.00;;;6.30;;
11797;SDS011;5956;51.428;6.682;2023-12-04T09:32:56;7.73;;;6.23;;
11797;SDS011;5956;51.428;6.682;2023-12-04T09:35:22;7.80;;;6.07;;
11797;SDS011;5956;51.428;6.682;2023-12-04T09:37:49;6.37;;;5.73;;
11797;SDS011;5956;51.428;6.682;2023-12-04T09:40:16;6.97;;;5.90;;
11797;SDS011;5956;51.428;6.682;2023-12-04T09:42:42;8.53;;;6.00;;
11797;SDS011;5956;51.428;6.682;2023-12-04T09:45:09;8.70;;;6.30;;
11797;SDS011;5956;51.428;6.682;2023-12-04T09:47:36;11.07;;;7.97;;
11797;SDS011;5956;51.428;6.682;2023-12-04T09:50:05;7.03;;;6.23;;
11797;SDS011;5956;51.428;6.682;2023-12-04T09:52:32;7.20;;;5.90;;
11797;SDS011;5956;51.428;6.682;2023-12-04T09:55:00;7.27;;;6.43;;
11797;SDS011;5956;51.428;6.682;2023-12-04T09:57:26;6.40;;;5.80;;
11797;SDS011;5956;51.428;6.682;2023-12-04T09:59:53;6.40;;;5.77;;
11797;SDS011;5956;51.428;6.682;2023-12-04T10:02:20;9.13;;;6.60;;
11797;SDS011;5956;51.428;6.682;2023-12-04T10:04:47;6.60;;;5.97;;
11797;SDS011;5956;51.428;6.682;2023-12-04T10:07:17;8.53;;;7.23;;
11797;SDS011;5956;51.428;6.682;2023-12-04T10:09:44;6.57;;;5.23;;
11797;SDS011;5956;51.428;6.682;2023-12-04T10:12:11;5.63;;;5.13;;
11797;SDS011;5956;51.428;6.682;2023-12-04T10:14:37;6.57;;;5.53;;
11797;SDS011;5956;51.428;6.682;2023-12-04T10:17:13;7.03;;;6.33;;
11797;SDS011;5956;51.428;6.682;2023-12-04T10:19:40;7.40;;;5.97;;
11797;SDS011;5956;51.428;6.682;2023-12-04T10:22:07;6.90;;;5.93;;
11797;SDS011;5956;51.428;6.682;2023-12-04T10:24:37;4.40;;;4.00;;
11797;SDS011;5956;51.428;6.682;2023-12-04T10:27:04;7.20;;;6.50;;
11797;SDS011;5956;51.428;6.682;2023-12-04T10:29:39;7.13;;;6.10;;
11797;SDS011;5956;51.428;6.682;2023-12-04T10:32:07;7.23;;;6.50;;
11797;SDS011;5956;51.428;6.682;2023-12-04T10:34:33;6.63;;;6.03;;
11797;SDS011;5956;51.428;6.682;2023-12-04T10:37:00;6.43;;;5.83;;
11797;SDS011;5956;51.428;6.682;2023-12-04T10:39:31;7.47;;;6.37;;
11797;SDS011;5956;51.428;6.682;2023-12-04T10:42:00;6.20;;;5.60;;
11797;SDS011;5956;51.428;6.682;2023-12-04T10:44:31;7.33;;;6.50;;
11797;SDS011;5956;51.428;6.682;2023-12-04T10:46:59;13.73;;;8.33;;
11797;SDS011;5956;51.428;6.682;2023-12-04T10:49:26;6.97;;;6.27;;
11797;SDS011;5956;51.428;6.682;2023-12-04T10:51:54;7.90;;;6.83;;
11797;SDS011;5956;51.428;6.682;2023-12-04T10:54:21;6.63;;;5.93;;
11797;SDS011;5956;51.428;6.682;2023-12-04T10:56:48;7.57;;;6.77;;
11797;SDS011;5956;51.428;6.682;2023-12-04T10:59:21;6.93;;;6.20;;
11797;SDS011;5956;51.428;6.682;2023-12-04T11:01:48;7.63;;;6.73;;
11797;SDS011;5956;51.428;6.682;2023-12-04T11:04:16;7.83;;;6.70;;
11797;SDS011;5956;51.428;6.682;2023-12-04T11:06:43;7.17;;;6.47;;
11797;SDS011;5956;51.428;6.682;2023-12-04T11:09:10;9.33;;;6.60;;
11797;SDS011;5956;51.428;6.682;2023-12-04T11:11:38;7.30;;;6.53;;
11797;SDS011;5956;51.428;6.682;2023-12-04T11:14:08;7.77;;;6.90;;
11797;SDS011;5956;51.428;6.682;2023-12-04T11:16:38;8.90;;;6.60;;
11797;SDS011;5956;51.428;6.682;2023-12-04T11:19:06;9.03;;;7.40;;
11797;SDS011;5956;51.428;6.682;2023-12-04T11:21:35;10.80;;;7.80;;
11797;SDS011;5956;51.428;6.682;2023-12-04T11:24:03;8.73;;;7.43;;
11797;SDS011;5956;51.428;6.682;2023-12-04T11:26:31;8.27;;;6.73;;
11797;SDS011;5956;51.428;6.682;2023-12-04T11:28:58;7.60;;;6.87;;
11797;SDS011;5956;51.428;6.682;2023-12-04T11:31:25;8.70;;;7.40;;
11797;SDS011;5956;51.428;6.682;2023-12-04T11:33:53;9.07;;;7.20;;
11797;SDS011;5956;51.428;6.682;2023-12-04T11:36:27;7.73;;;6.93;;
11797;SDS011;5956;51.428;6.682;2023-12-04T11:38:54;8.93;;;7.60;;
11797;SDS011;5956;51.428;6.682;2023-12-04T11:41:22;14.23;;;10.67;;
11797;SDS011;5956;51.428;6.682;2023-12-04T11:43:49;9.57;;;7.63;;
11797;SDS011;5956;51.428;6.682;2023-12-04T11:46:18;11.10;;;8.10;;
11797;SDS011;5956;51.428;6.682;2023-12-04T11:48:47;11.30;;;7.63;;
11797;SDS011;5956;51.428;6.682;2023-12-04T11:51:16;9.97;;;7.70;;
11797;SDS011;5956;51.428;6.682;2023-12-04T11:54:02;10.57;;;8.07;;
11797;SDS011;5956;51.428;6.682;2023-12-04T11:56:30;9.63;;;8.03;;
11797;SDS011;5956;51.428;6.682;2023-12-04T11:59:00;11.50;;;8.60;;
11797;SDS011;5956;51.428;6.682;2023-12-04T12:01:32;11.37;;;8.73;;
11797;SDS011;5956;51.428;6.682;2023-12-04T12:03:59;10.03;;;8.07;;
11797;SDS011;5956;51.428;6.682;2023-12-04T12:06:28;10.47;;;9.10;;
11797;SDS011;5956;51.428;6.682;2023-12-04T12:08:55;9.07;;;8.17;;
11797;SDS011;5956;51.428;6.682;2023-12-04T12:11:22;10.80;;;9.20;;
11797;SDS011;5956;51.428;6.682;2023-12-04T12:13:49;14.50;;;9.60;;
11797;SDS011;5956;51.428;6.682;2023-12-04T12:16:17;9.70;;;8.70;;
11797;SDS011;5956;51.428;6.682;2023-12-04T12:18:44;10.60;;;8.77;;
11797;SDS011;5956;51.428;6.682;2023-12-04T12:21:10;9.50;;;8.53;;
11797;SDS011;5956;51.428;6.682;2023-12-04T12:23:39;10.07;;;8.97;;
11797;SDS011;5956;51.428;6.682;2023-12-04T12:26:06;9.10;;;8.13;;
11797;SDS011;5956;51.428;6.682;2023-12-04T12:28:34;8.97;;;8.07;;
11797;SDS011;5956;51.428;6.682;2023-12-04T12:31:01;10.97;;;8.60;;
11797;SDS011;5956;51.428;6.682;2023-12-04T12:33:28;9.00;;;7.87;;
11797;SDS011;5956;51.428;6.682;2023-12-04T12:35:55;11.13;;;8.53;;
11797;SDS011;5956;51.428;6.682;2023-12-04T12:38:22;8.73;;;7.83;;
11797;SDS011;5956;51.428;6.682;2023-12-04T12:40:49;12.70;;;8.73;;
11797;SDS011;5956;51.428;6.682;2023-12-04T12:43:16;10.47;;;9.13;;
11797;SDS011;5956;51.428;6.682;2023-12-04T12:45:47;10.53;;;9.00;;
11797;SDS011;5956;51.428;6.682;2023-12-04T12:48:14;10.43;;;8.67;;
11797;SDS011;5956;51.428;6.682;2023-12-04T12:50:41;9.80;;;8.50;;
11797;SDS011;5956;51.428;6.682;2023-12-04T12:53:10;11.67;;;10.23;;
11797;SDS011;5956;51.428;6.682;2023-12-04T12:55:37;10.43;;;9.23;;
11797;SDS011;5956;51.428;6.682;2023-12-04T12:58:06;10.67;;;9.00;;
11797;SDS011;5956;51.428;6.682;2023-12-04T13:00:34;10.90;;;9.37;;
11797;SDS011;5956;51.428;6.682;2023-12-04T13:03:00;9.67;;;8.70;;
11797;SDS011;5956;51.428;6.682;2023-12-04T13:05:28;9.37;;;8.33;;
11797;SDS011;5956;51.428;6.682;2023-12-04T13:07:55;9.73;;;8.50;;
11797;SDS011;5956;51.428;6.682;2023-12-04T13:10:22;10.80;;;8.30;;
11797;SDS011;5956;51.428;6.682;2023-12-04T13:12:49;10.97;;;8.97;;
11797;SDS011;5956;51.428;6.682;2023-12-04T13:15:19;9.97;;;8.43;;
11797;SDS011;5956;51.428;6.682;2023-12-04T13:17:46;10.27;;;8.70;;
11797;SDS011;5956;51.428;6.682;2023-12-04T13:20:13;9.53;;;7.83;;
11797;SDS011;5956;51.428;6.682;2023-12-04T13:22:41;11.23;;;8.67;;
11797;SDS011;5956;51.428;6.682;2023-12-04T13:25:08;9.10;;;8.23;;
11797;SDS011;5956;51.428;6.682;2023-12-04T13:27:35;9.30;;;7.97;;
11797;SDS011;5956;51.428;6.682;2023-12-04T13:30:06;11.70;;;9.20;;
11797;SDS011;5956;51.428;6.682;2023-12-04T13:32:34;9.47;;;7.97;;
11797;SDS011;5956;51.428;6.682;2023-12-04T13:35:01;9.67;;;7.93;;
11797;SDS011;5956;51.428;6.682;2023-12-04T13:37:30;8.87;;;7.97;;
11797;SDS011;5956;51.428;6.682;2023-12-04T13:39:57;10.63;;;7.40;;
11797;SDS011;5956;51.428;6.682;2023-12-04T13:42:23;8.57;;;7.50;;
11797;SDS011;5956;51.428;6.682;2023-12-04T13:45:08;8.60;;;7.03;;
11797;SDS011;5956;51.428;6.682;2023-12-04T13:47:36;8.83;;;7.77;;
11797;SDS011;5956;51.428;6.682;2023-12-04T13:50:03;11.43;;;8.17;;
11797;SDS011;5956;51.428;6.682;2023-12-04T13:52:30;8.83;;;7.93;;
11797;SDS011;5956;51.428;6.682;2023-12-04T13:54:59;8.80;;;7.63;;
11797;SDS011;5956;51.428;6.682;2023-12-04T13:57:25;8.40;;;7.50;;
11797;SDS011;5956;51.428;6.682;2023-12-04T13:59:54;8.17;;;7.00;;
11797;SDS011;5956;51.428;6.682;2023-12-04T14:02:23;8.20;;;7.10;;
11797;SDS011;5956;51.428;6.682;2023-12-04T14:04:51;7.30;;;6.57;;
11797;SDS011;5956;51.428;6.682;2023-12-04T14:07:17;11.90;;;9.83;;
11797;SDS011;5956;51.428;6.682;2023-12-04T14:09:44;8.00;;;7.20;;
11797;SDS011;5956;51.428;6.682;2023-12-04T14:12:11;8.57;;;7.67;;
11797;SDS011;5956;51.428;6.682;2023-12-04T14:14:39;8.37;;;7.10;;
11797;SDS011;5956;51.428;6.682;2023-12-04T14:17:05;9.03;;;7.30;;
11797;SDS011;5956;51.428;6.682;2023-12-04T14:19:32;8.17;;;7.20;;
11797;SDS011;5956;51.428;6.682;2023-12-04T14:22:00;7.37;;;6.67;;
11797;SDS011;5956;51.428;6.682;2023-12-04T14:24:27;7.70;;;6.63;;
11797;SDS011;5956;51.428;6.682;2023-12-04T14:26:55;7.03;;;6.33;;
11797;SDS011;5956;51.428;6.682;2023-12-04T14:29:21;7.07;;;6.37;;
11797;SDS011;5956;51.428;6.682;2023-12-04T14:31:48;7.03;;;6.40;;
11797;SDS011;5956;51.428;6.682;2023-12-04T14:34:15;7.67;;;6.53;;
11797;SDS011;5956;51.428;6.682;2023-12-04T14:36:41;7.83;;;6.27;;
11797;SDS011;5956;51.428;6.682;2023-12-04T14:39:09;6.40;;;5.50;;
11797;SDS011;5956;51.428;6.682;2023-12-04T14:41:37;7.90;;;6.37;;
11797;SDS011;5956;51.428;6.682;2023-12-04T14:44:05;5.03;;;4.53;;
11797;SDS011;5956;51.428;6.682;2023-12-04T14:46:32;7.43;;;6.77;;
11797;SDS011;5956;51.428;6.682;2023-12-04T14:49:02;7.60;;;6.90;;
11797;SDS011;5956;51.428;6.682;2023-12-04T14:51:29;6.60;;;5.97;;
11797;SDS011;5956;51.428;6.682;2023-12-04T14:53:56;6.00;;;5.40;;